createdAt,value
2023-08-10T00:03:42.444Z,62.53
2023-08-10T00:08:46.402Z,137.45
2023-08-10T00:13:50.140Z,98.63
2023-08-10T00:18:56.082Z,124.38
2023-08-10T00:23:59.884Z,93.60
2023-08-10T00:29:03.794Z,227.05
2023-08-10T00:34:08.906Z,86.97
2023-08-10T00:39:12.679Z,75.97
2023-08-10T00:44:17.622Z,139.57
2023-08-10T00:49:23.209Z,56.58
2023-08-10T00:54:27.135Z,98.22
2023-08-10T00:59:32.549Z,73.00
2023-08-10T01:04:37.651Z,115.32
2023-08-10T01:09:49.302Z,156.02
2023-08-10T01:15:01.040Z,128.00
2023-08-10T01:20:09.768Z,152.13
2023-08-10T01:25:15.924Z,172.50
2023-08-10T01:30:20.724Z,90.25
2023-08-10T01:35:25.965Z,79.63
2023-08-10T01:40:31.575Z,74.70
2023-08-10T01:45:35.295Z,108.20
2023-08-10T01:50:42.616Z,92.82
2023-08-10T01:55:49.132Z,73.07
2023-08-10T02:00:53.616Z,148.55
2023-08-10T02:05:57.358Z,154.43
2023-08-10T02:11:02.489Z,54.72
2023-08-10T02:16:06.494Z,68.93
2023-08-10T02:21:10.227Z,153.07
2023-08-10T02:26:15.655Z,82.25
2023-08-10T02:31:19.365Z,49.53
2023-08-10T02:36:23.132Z,141.98
2023-08-10T02:41:28.180Z,94.93
2023-08-10T02:46:31.923Z,77.25
2023-08-10T02:51:35.695Z,80.72
2023-08-10T02:56:40.793Z,245.65
2023-08-10T03:07:31.950Z,47.90
2023-08-10T03:12:37.210Z,84.40
2023-08-10T03:17:42.261Z,58.03
2023-08-10T03:22:47.506Z,50.00
2023-08-10T03:27:53.068Z,91.22
2023-08-10T03:32:59.005Z,43.67
2023-08-10T03:38:02.955Z,160.32
2023-08-10T03:43:08.288Z,244.18
2023-08-10T03:48:12.368Z,438.73
2023-08-10T03:53:16.766Z,277.40
2023-08-10T03:58:23.304Z,141.75
2023-08-10T04:03:27.797Z,245.48
2023-08-10T04:08:31.682Z,141.82
2023-08-10T04:13:36.772Z,161.18
2023-08-10T04:18:40.583Z,75.03
2023-08-10T04:23:44.363Z,156.27
2023-08-10T04:28:49.330Z,116.88
2023-08-10T04:33:53.062Z,92.60
2023-08-10T04:38:56.915Z,109.72
2023-08-10T04:44:01.972Z,104.55
2023-08-10T04:49:07.103Z,104.63
2023-08-10T04:54:10.984Z,140.25
2023-08-10T04:59:16.159Z,111.60
2023-08-10T05:04:19.883Z,62.33
2023-08-10T05:09:23.497Z,236.63
2023-08-10T05:14:28.613Z,69.68
2023-08-10T05:19:32.355Z,56.35
2023-08-10T05:24:36.074Z,36.72
2023-08-10T05:29:41.168Z,26.25
2023-08-10T05:34:44.862Z,39.67
2023-08-10T05:39:48.533Z,33.17
2023-08-10T05:44:53.733Z,34.83
2023-08-10T05:49:57.315Z,63.30
2023-08-10T05:55:01.064Z,47.20
2023-08-10T06:00:07.288Z,49.92
2023-08-10T06:05:16.611Z,35.03
2023-08-10T06:10:21.004Z,37.00
2023-08-10T06:15:26.453Z,36.45
2023-08-10T06:20:30.087Z,40.88
2023-08-10T06:25:34.049Z,32.70
2023-08-10T06:30:39.148Z,28.70
2023-08-10T06:35:42.916Z,23.50
2023-08-10T06:40:46.740Z,21.15
2023-08-10T06:45:51.739Z,20.08
2023-08-10T06:50:55.536Z,16.35
2023-08-10T06:55:59.591Z,19.08
2023-08-10T07:01:04.952Z,19.67
2023-08-10T07:06:09.560Z,21.00
2023-08-10T07:11:13.339Z,16.35
2023-08-10T07:16:19.047Z,14.38
2023-08-10T07:21:23.564Z,16.58
2023-08-10T07:26:27.562Z,12.07
2023-08-10T07:31:34.135Z,10.52
2023-08-10T07:36:37.930Z,9.57
2023-08-10T07:41:41.657Z,11.80
2023-08-10T07:46:48.283Z,6.15
2023-08-10T07:51:52.018Z,10.63
2023-08-10T07:56:55.857Z,12.55
2023-08-10T08:02:01.094Z,13.18
2023-08-10T08:07:04.916Z,9.73
2023-08-10T08:12:08.894Z,17.67
2023-08-10T08:17:13.927Z,17.63
2023-08-10T08:22:17.571Z,20.20
2023-08-10T08:27:21.251Z,15.63
2023-08-10T08:32:42.955Z,17.77
2023-08-10T08:37:49.920Z,14.98
2023-08-10T08:42:54.816Z,11.55
2023-08-10T08:48:00.437Z,11.45
2023-08-10T08:53:07.306Z,5.70
2023-08-10T08:58:11.318Z,8.88
2023-08-10T09:03:17.205Z,8.38
2023-08-10T09:08:22.901Z,5.45
2023-08-10T09:13:26.616Z,7.65
2023-08-10T09:18:34.820Z,12.15
2023-08-10T09:23:38.554Z,9.77
2023-08-10T09:28:42.301Z,9.25
2023-08-10T09:33:47.351Z,4.47
2023-08-10T09:38:52.241Z,5.13
2023-08-10T09:43:56.026Z,7.35
2023-08-10T09:49:02.375Z,4.18
2023-08-10T09:54:06.763Z,6.03
2023-08-10T09:59:10.622Z,8.13
2023-08-10T10:04:16.621Z,6.68
2023-08-10T10:09:20.562Z,9.98
2023-08-10T10:14:24.926Z,10.88
2023-08-10T10:19:30.431Z,8.18
2023-08-10T10:24:34.307Z,5.47
2023-08-10T10:29:39.435Z,5.93
2023-08-10T10:34:45.400Z,2.35
2023-08-10T10:39:52.264Z,3.05
2023-08-10T10:45:07.727Z,7.82
2023-08-10T10:50:18.613Z,3.67
2023-08-10T10:55:22.847Z,4.38
2023-08-10T11:00:26.649Z,4.55
2023-08-10T11:05:31.815Z,3.97
2023-08-10T11:10:37.685Z,5.00
2023-08-10T11:15:41.573Z,2.83
2023-08-10T11:20:49.067Z,3.45
2023-08-10T11:25:53.566Z,5.40
2023-08-10T11:31:04.568Z,3.40
2023-08-10T11:36:09.867Z,3.60
2023-08-10T11:41:14.212Z,3.22
2023-08-10T11:46:21.857Z,5.97
2023-08-10T11:51:34.061Z,2.50
2023-08-10T11:56:46.685Z,4.88
2023-08-10T12:01:54.596Z,6.75
2023-08-10T12:07:01.442Z,2.78
2023-08-10T12:12:06.770Z,6.85
2023-08-10T12:17:11.451Z,4.25
2023-08-10T12:22:16.671Z,2.40
2023-08-10T12:27:20.536Z,4.22
2023-08-10T12:32:24.774Z,3.38
2023-08-10T12:37:30.620Z,3.30
2023-08-10T12:42:35.131Z,3.10
2023-08-10T12:47:39.574Z,4.00
2023-08-10T12:52:46.849Z,2.55
2023-08-10T12:57:50.771Z,2.38
2023-08-10T13:02:54.913Z,2.15
2023-08-10T13:08:00.277Z,2.40
2023-08-10T13:13:04.350Z,1.90
2023-08-10T13:18:09.504Z,2.17
2023-08-10T13:23:14.650Z,3.35
2023-08-10T13:28:18.301Z,3.70
2023-08-10T13:33:22.070Z,2.53
2023-08-10T13:38:27.262Z,3.80
2023-08-10T13:43:31.399Z,3.60
2023-08-10T13:48:35.657Z,3.05
2023-08-10T13:53:40.924Z,3.38
2023-08-10T13:58:44.649Z,3.20
2023-08-10T14:03:48.820Z,3.65
2023-08-10T14:08:55.220Z,3.72
2023-08-10T14:13:58.993Z,2.13
2023-08-10T14:19:02.768Z,4.93
2023-08-10T14:24:08.898Z,3.42
2023-08-10T14:29:12.704Z,3.10
2023-08-10T14:34:17.351Z,3.60
2023-08-10T14:39:22.949Z,2.63
2023-08-10T14:44:26.810Z,3.60
2023-08-10T14:49:30.704Z,2.28
2023-08-10T14:54:35.779Z,3.88
2023-08-10T14:59:39.646Z,1.80
2023-08-10T15:04:43.403Z,2.40
2023-08-10T15:09:48.621Z,3.72
2023-08-10T15:14:52.405Z,3.63
2023-08-10T15:19:56.081Z,4.88
2023-08-10T15:25:01.134Z,2.40
2023-08-10T15:30:05.450Z,4.35
2023-08-10T15:35:11.220Z,3.38
2023-08-10T15:40:16.375Z,4.13
2023-08-10T15:45:20.953Z,4.45
2023-08-10T15:50:24.697Z,3.60
2023-08-10T15:55:29.719Z,3.55
2023-08-10T16:00:33.466Z,3.67
2023-08-10T16:05:37.190Z,4.07
2023-08-10T16:10:42.339Z,2.72
2023-08-10T16:15:47.351Z,2.95
2023-08-10T16:20:51.228Z,4.75
2023-08-10T16:25:57.885Z,4.07
2023-08-10T16:31:01.949Z,2.65
2023-08-10T16:36:06.123Z,6.40
2023-08-10T16:41:11.414Z,3.55
2023-08-10T16:46:15.196Z,2.10
2023-08-10T16:51:19.022Z,2.42
2023-08-10T16:56:24.696Z,2.53
2023-08-10T17:01:28.457Z,5.25
2023-08-10T17:06:32.149Z,4.13
2023-08-10T17:11:37.198Z,2.38
2023-08-10T17:16:41.004Z,4.28
2023-08-10T17:21:44.877Z,2.80
2023-08-10T17:26:50.253Z,2.30
2023-08-10T17:31:53.890Z,2.70
2023-08-10T17:36:57.565Z,3.55
2023-08-10T17:42:02.595Z,4.13
2023-08-10T17:47:06.600Z,3.50
2023-08-10T17:52:10.341Z,3.20
2023-08-10T17:57:15.688Z,10.07
2023-08-10T18:02:19.614Z,5.47
2023-08-10T18:07:23.324Z,3.50
2023-08-10T18:12:28.587Z,3.50
2023-08-10T18:17:33.384Z,5.72
2023-08-10T18:22:37.251Z,2.50
2023-08-10T18:27:42.290Z,4.13
2023-08-10T18:32:46.199Z,3.30
2023-08-10T18:37:50.524Z,2.97
2023-08-10T18:42:57.612Z,3.35
2023-08-10T18:48:02.418Z,3.78
2023-08-10T18:53:08.180Z,4.43
2023-08-10T18:58:15.245Z,6.45
2023-08-10T19:03:18.971Z,4.32
2023-08-10T19:08:22.760Z,6.63
2023-08-10T19:13:28.091Z,6.80
2023-08-10T19:18:32.423Z,3.65
2023-08-10T19:23:37.335Z,3.85
2023-08-10T19:28:43.293Z,4.40
2023-08-10T19:33:47.488Z,6.15
2023-08-10T19:38:51.856Z,3.00
2023-08-10T19:43:57.623Z,5.25
2023-08-10T19:49:01.999Z,5.28
2023-08-10T19:54:06.897Z,7.10
2023-08-10T19:59:18.792Z,8.35
2023-08-10T20:20:13.388Z,6.22
2023-08-10T20:25:19.122Z,4.30
2023-08-10T20:30:23.125Z,6.75
2023-08-10T21:23:02.964Z,5.78
2023-08-10T22:40:28.624Z,4.38
2023-08-10T22:45:33.043Z,6.97
2023-08-10T22:50:37.390Z,6.03
2023-08-10T22:55:42.993Z,5.70
2023-08-10T23:00:47.303Z,6.22
2023-08-10T23:05:51.607Z,5.35
2023-08-10T23:10:57.079Z,5.55
2023-08-10T23:16:01.272Z,3.85
